createdAt,value
2022-10-22T00:00:59.491Z,14.63
2022-10-22T00:03:31.594Z,11.43
2022-10-22T00:06:03.475Z,13.60
2022-10-22T00:08:35.367Z,13.87
2022-10-22T00:11:15.496Z,13.70
2022-10-22T00:16:24.637Z,16.13
2022-10-22T00:18:56.438Z,17.73
2022-10-22T00:21:29.158Z,16.30
2022-10-22T00:24:01.047Z,18.63
2022-10-22T00:26:32.771Z,17.13
2022-10-22T00:29:04.490Z,18.57
2022-10-22T00:31:36.227Z,13.97
2022-10-22T00:34:07.958Z,17.27
2022-10-22T00:36:39.679Z,17.70
2022-10-22T00:39:13.016Z,15.17
2022-10-22T00:41:46.142Z,14.83
2022-10-22T00:44:56.050Z,15.17
2022-10-22T00:47:36.673Z,18.23
2022-10-22T00:50:14.139Z,13.67
2022-10-22T00:52:46.624Z,16.30
2022-10-22T00:55:20.482Z,15.43
2022-10-22T00:57:55.663Z,19.13
2022-10-22T01:00:27.460Z,16.97
2022-10-22T01:02:59.993Z,16.53
2022-10-22T01:05:39.166Z,18.93
2022-10-22T01:08:37.232Z,15.47
2022-10-22T01:11:15.805Z,16.93
2022-10-22T01:14:30.342Z,15.47
2022-10-22T01:17:28.211Z,15.87
2022-10-22T01:20:17.719Z,14.10
2022-10-22T01:23:18.784Z,14.93
2022-10-22T01:25:56.212Z,12.77
2022-10-22T01:28:53.033Z,16.30
2022-10-22T01:31:27.604Z,17.17
2022-10-22T01:34:01.169Z,17.13
2022-10-22T01:36:35.501Z,16.77
2022-10-22T01:39:08.591Z,20.60
2022-10-22T01:41:45.318Z,15.77
2022-10-22T01:47:29.660Z,20.40
2022-10-22T01:50:22.033Z,16.90
2022-10-22T01:53:02.297Z,21.03
2022-10-22T01:55:56.018Z,15.07
2022-10-22T01:58:43.705Z,15.47
2022-10-22T02:01:31.320Z,17.00
2022-10-22T02:04:24.901Z,17.60
2022-10-22T02:07:03.724Z,14.27
2022-10-22T02:09:36.526Z,15.47
2022-10-22T02:12:09.714Z,20.03
2022-10-22T02:14:44.097Z,16.90
2022-10-22T02:17:20.027Z,17.40
2022-10-22T02:19:58.355Z,17.70
2022-10-22T02:22:30.681Z,16.53
2022-10-22T02:25:03.045Z,16.90
2022-10-22T02:27:48.202Z,17.70
2022-10-22T02:30:22.154Z,27.03
2022-10-22T02:33:07.805Z,19.90
2022-10-22T02:35:41.650Z,23.03
2022-10-22T02:38:14.467Z,19.10
2022-10-22T02:40:47.123Z,19.73
2022-10-22T02:43:19.429Z,18.90
2022-10-22T02:45:51.695Z,17.83
2022-10-22T02:48:23.420Z,18.40
2022-10-22T02:50:55.150Z,18.60
2022-10-22T02:53:26.869Z,18.60
2022-10-22T02:55:59.229Z,24.80
2022-10-22T02:58:31.097Z,20.77
2022-10-22T03:01:02.985Z,23.00
2022-10-22T03:03:34.825Z,18.33
2022-10-22T03:06:07.073Z,23.10
2022-10-22T03:08:38.836Z,16.93
2022-10-22T03:11:10.691Z,18.93
2022-10-22T03:13:42.520Z,19.27
2022-10-22T03:16:14.240Z,19.67
2022-10-22T03:18:45.957Z,19.70
2022-10-22T03:21:18.045Z,18.77
2022-10-22T03:23:49.865Z,21.50
2022-10-22T03:26:22.108Z,20.60
2022-10-22T03:28:54.317Z,22.17
2022-10-22T03:31:26.490Z,21.33
2022-10-22T03:33:58.253Z,18.40
2022-10-22T03:36:30.874Z,18.73
2022-10-22T03:39:02.767Z,21.77
2022-10-22T03:41:35.468Z,23.10
2022-10-22T03:44:07.540Z,18.47
2022-10-22T03:46:39.260Z,21.50
2022-10-22T03:49:10.988Z,19.93
2022-10-22T03:51:43.003Z,24.57
2022-10-22T03:54:16.251Z,19.63
2022-10-22T03:56:47.967Z,20.87
2022-10-22T03:59:19.753Z,21.40
2022-10-22T04:01:51.501Z,17.90
2022-10-22T04:04:23.215Z,21.60
2022-10-22T04:06:54.965Z,19.67
2022-10-22T04:09:26.717Z,21.97
2022-10-22T04:11:58.770Z,21.80
2022-10-22T04:14:30.481Z,19.63
2022-10-22T04:17:02.225Z,19.43
2022-10-22T04:19:33.995Z,19.20
2022-10-22T04:22:05.724Z,20.80
2022-10-22T04:24:38.069Z,21.47
2022-10-22T04:27:09.847Z,20.37
2022-10-22T04:29:41.591Z,22.07
2022-10-22T04:32:13.313Z,22.83
2022-10-22T04:34:45.032Z,22.53
2022-10-22T04:37:16.843Z,20.77
2022-10-22T04:39:48.773Z,19.10
2022-10-22T04:42:20.496Z,19.73
2022-10-22T04:44:52.216Z,19.80
2022-10-22T04:47:24.032Z,18.27
2022-10-22T04:49:55.750Z,21.13
2022-10-22T04:52:27.472Z,20.80
2022-10-22T04:54:59.185Z,17.67
2022-10-22T04:57:31.692Z,16.83
2022-10-22T05:00:04.812Z,15.87
2022-10-22T05:02:36.565Z,18.50
2022-10-22T05:05:08.400Z,25.20
2022-10-22T05:07:40.437Z,20.37
2022-10-22T05:10:12.386Z,24.23
2022-10-22T05:12:44.092Z,22.40
2022-10-22T05:15:15.900Z,23.20
2022-10-22T05:17:47.625Z,20.37
2022-10-22T05:20:19.362Z,21.10
2022-10-22T05:22:51.072Z,22.27
2022-10-22T05:25:22.806Z,22.07
2022-10-22T05:27:57.194Z,22.03
2022-10-22T05:30:30.198Z,17.67
2022-10-22T05:33:01.927Z,19.07
2022-10-22T05:35:33.695Z,22.43
2022-10-22T05:38:05.407Z,21.63
2022-10-22T05:40:37.129Z,20.63
2022-10-22T05:43:08.860Z,23.20
2022-10-22T05:45:42.234Z,32.20
2022-10-22T05:48:13.946Z,21.57
2022-10-22T05:50:50.534Z,26.33
2022-10-22T05:53:22.463Z,18.23
2022-10-22T05:55:54.173Z,19.17
2022-10-22T05:58:25.941Z,18.93
2022-10-22T06:01:05.642Z,18.87
2022-10-22T06:03:37.392Z,18.70
2022-10-22T06:06:28.839Z,25.00
2022-10-22T06:09:07.670Z,22.50
2022-10-22T06:11:39.448Z,23.77
2022-10-22T06:14:11.547Z,17.83
2022-10-22T06:16:43.377Z,19.17
2022-10-22T06:19:17.172Z,18.87
2022-10-22T06:21:49.192Z,16.80
2022-10-22T06:24:21.060Z,17.27
2022-10-22T06:26:53.419Z,20.13
2022-10-22T06:29:25.217Z,19.73
2022-10-22T06:31:56.933Z,21.90
2022-10-22T06:34:28.644Z,16.53
2022-10-22T06:37:00.363Z,16.67
2022-10-22T06:39:32.122Z,18.57
2022-10-22T06:42:03.993Z,18.70
2022-10-22T06:44:39.193Z,21.07
2022-10-22T06:47:10.929Z,20.77
2022-10-22T06:49:42.760Z,23.00
2022-10-22T06:52:14.598Z,20.07
2022-10-22T06:54:46.352Z,22.17
2022-10-22T06:57:18.427Z,24.73
2022-10-22T06:59:50.229Z,18.70
2022-10-22T07:02:21.986Z,20.77
2022-10-22T07:04:53.772Z,19.83
2022-10-22T07:07:25.494Z,20.00
2022-10-22T07:09:57.272Z,21.80
2022-10-22T07:12:29.115Z,21.90
2022-10-22T07:15:00.911Z,17.83
2022-10-22T07:17:32.736Z,16.03
2022-10-22T07:20:05.152Z,17.57
2022-10-22T07:22:36.965Z,17.93
2022-10-22T07:25:09.095Z,17.20
2022-10-22T07:27:41.239Z,22.77
2022-10-22T07:30:13.352Z,22.83
2022-10-22T07:32:45.178Z,20.17
2022-10-22T07:35:17.083Z,21.30
2022-10-22T07:37:49.103Z,19.70
2022-10-22T07:40:21.039Z,20.63
2022-10-22T07:42:52.990Z,18.03
2022-10-22T07:45:24.809Z,22.27
2022-10-22T07:47:56.749Z,21.27
2022-10-22T07:50:28.759Z,23.57
2022-10-22T07:53:00.669Z,18.40
2022-10-22T07:55:34.328Z,20.40
2022-10-22T07:58:06.146Z,16.40
2022-10-22T08:00:38.100Z,19.20
2022-10-22T08:03:14.105Z,15.90
2022-10-22T08:05:46.263Z,16.23
2022-10-22T08:08:18.117Z,12.57
2022-10-22T08:10:53.030Z,11.50
2022-10-22T08:13:26.228Z,12.10
2022-10-22T08:16:01.244Z,7.00
2022-10-22T08:18:32.970Z,7.47
2022-10-22T08:21:04.818Z,6.43
2022-10-22T08:23:36.794Z,5.90
2022-10-22T08:26:08.858Z,5.73
2022-10-22T08:28:40.653Z,4.63
2022-10-22T08:31:12.697Z,4.40
2022-10-22T08:33:44.423Z,4.47
2022-10-22T08:36:16.229Z,4.00
2022-10-22T08:38:47.971Z,3.90
2022-10-22T08:41:23.230Z,3.80
2022-10-22T08:44:32.818Z,4.20
2022-10-22T08:47:26.446Z,3.93
2022-10-22T08:50:00.290Z,4.00
2022-10-22T08:52:34.478Z,3.60
2022-10-22T08:55:12.977Z,3.30
2022-10-22T08:58:03.303Z,3.93
2022-10-22T09:00:36.662Z,4.70
2022-10-22T09:03:43.283Z,4.50
2022-10-22T09:06:25.525Z,6.10
2022-10-22T09:08:59.875Z,3.10
2022-10-22T09:11:33.401Z,3.93
2022-10-22T09:14:05.758Z,4.20
2022-10-22T09:16:58.362Z,3.50
2022-10-22T09:19:49.099Z,4.97
2022-10-22T09:22:29.774Z,2.73
2022-10-22T09:25:25.898Z,3.13
2022-10-22T09:28:00.722Z,2.53
2022-10-22T09:30:36.295Z,2.40
2022-10-22T09:33:08.003Z,2.00
2022-10-22T09:35:50.785Z,3.07
2022-10-22T09:38:29.301Z,2.00
2022-10-22T09:41:03.871Z,1.90
2022-10-22T09:43:36.174Z,2.57
2022-10-22T09:46:17.084Z,3.13
2022-10-22T09:49:11.012Z,2.03
2022-10-22T09:51:48.825Z,3.03
2022-10-22T09:54:26.312Z,3.10
2022-10-22T09:57:04.904Z,2.53
2022-10-22T09:59:41.751Z,2.30
2022-10-22T10:02:20.387Z,2.70
2022-10-22T10:05:06.315Z,1.50
2022-10-22T10:07:38.058Z,1.67
2022-10-22T10:10:40.886Z,1.47
2022-10-22T10:13:31.198Z,1.53
2022-10-22T10:16:26.236Z,2.03
2022-10-22T10:19:17.371Z,1.20
2022-10-22T10:22:01.469Z,3.00
2022-10-22T10:25:07.114Z,1.47
2022-10-22T10:27:50.050Z,1.13
2022-10-22T10:30:24.040Z,1.70
2022-10-22T10:33:34.627Z,1.10
2022-10-22T10:36:27.581Z,1.80
2022-10-22T10:39:17.750Z,2.30
2022-10-22T10:41:57.321Z,0.80
2022-10-22T10:44:50.717Z,1.50
2022-10-22T10:47:22.397Z,0.93
2022-10-22T10:50:01.704Z,0.90
2022-10-22T10:52:42.371Z,1.17
2022-10-22T10:55:28.624Z,0.90
2022-10-22T10:58:15.179Z,1.90
2022-10-22T11:01:03.469Z,0.93
2022-10-22T11:03:47.206Z,3.03
2022-10-22T11:06:24.563Z,1.43
2022-10-22T11:09:28.725Z,0.70
2022-10-22T11:12:05.457Z,1.67
2022-10-22T11:15:03.549Z,2.17
2022-10-22T11:17:46.193Z,1.63
2022-10-22T11:20:47.082Z,1.40
2022-10-22T11:23:42.620Z,0.60
2022-10-22T11:26:25.298Z,2.80
2022-10-22T11:29:01.244Z,1.87
2022-10-22T11:31:33.092Z,4.67
2022-10-22T11:34:35.068Z,1.23
2022-10-22T11:37:07.731Z,1.17
2022-10-22T11:39:39.463Z,0.50
2022-10-22T11:42:19.228Z,0.70
2022-10-22T11:45:15.250Z,2.93
2022-10-22T11:48:10.502Z,1.50
2022-10-22T11:50:47.023Z,2.40
2022-10-22T11:53:33.468Z,1.47
2022-10-22T11:56:09.982Z,2.47
2022-10-22T11:58:50.714Z,3.83
2022-10-22T12:01:28.445Z,0.53
2022-10-22T12:04:17.435Z,1.17
2022-10-22T12:06:58.424Z,0.60
2022-10-22T12:09:32.881Z,0.90
2022-10-22T12:12:13.889Z,3.50
2022-10-22T12:14:57.660Z,1.37
2022-10-22T12:17:30.956Z,0.53
2022-10-22T12:20:11.504Z,0.70
2022-10-22T12:22:44.127Z,2.40
2022-10-22T12:25:21.474Z,1.83
2022-10-22T12:27:58.763Z,1.60
2022-10-22T12:30:34.673Z,0.50
2022-10-22T12:33:17.999Z,3.87
2022-10-22T12:35:53.968Z,0.87
2022-10-22T12:38:25.757Z,2.30
2022-10-22T12:40:58.160Z,0.70
2022-10-22T12:43:30.905Z,2.00
2022-10-22T12:46:02.822Z,1.90
2022-10-22T12:48:40.347Z,0.73
2022-10-22T12:51:19.431Z,2.80
2022-10-22T12:53:54.293Z,0.97
2022-10-22T12:56:29.631Z,1.37
2022-10-22T12:59:30.681Z,1.30
2022-10-22T13:02:06.790Z,1.17
2022-10-22T13:04:42.356Z,0.63
2022-10-22T13:07:18.255Z,1.87
2022-10-22T13:09:55.751Z,1.23
2022-10-22T13:12:35.057Z,1.33
2022-10-22T13:15:33.715Z,0.50
2022-10-22T13:18:23.879Z,0.93
2022-10-22T13:21:03.242Z,2.37
2022-10-22T13:23:35.056Z,1.03
2022-10-22T13:26:18.042Z,1.43
2022-10-22T13:28:52.463Z,0.60
2022-10-22T13:31:27.358Z,0.80
2022-10-22T13:34:11.779Z,2.63
2022-10-22T13:36:46.043Z,2.13
2022-10-22T13:39:24.844Z,2.07
2022-10-22T13:41:56.594Z,1.13
2022-10-22T13:44:28.425Z,1.07
2022-10-22T13:47:00.319Z,1.57
2022-10-22T13:49:32.165Z,1.10
2022-10-22T13:52:04.109Z,5.47
2022-10-22T13:54:37.844Z,0.60
2022-10-22T13:57:10.828Z,1.70
2022-10-22T13:59:42.638Z,1.03
2022-10-22T14:02:14.480Z,1.00
2022-10-22T14:04:46.543Z,1.43
2022-10-22T14:07:18.769Z,3.40
2022-10-22T14:09:50.501Z,1.10
2022-10-22T14:12:22.431Z,0.70
2022-10-22T14:14:54.354Z,0.60
2022-10-22T14:17:26.977Z,1.37
2022-10-22T14:19:59.569Z,1.00
2022-10-22T14:22:31.469Z,1.60
2022-10-22T14:25:03.291Z,1.73
2022-10-22T14:27:35.119Z,1.63
2022-10-22T14:30:07.570Z,3.33
2022-10-22T14:32:39.666Z,0.60
2022-10-22T14:35:14.187Z,1.50
2022-10-22T14:37:46.175Z,0.77
2022-10-22T14:40:20.564Z,2.40
2022-10-22T14:42:52.423Z,0.57
2022-10-22T14:45:26.632Z,0.83
2022-10-22T14:47:58.364Z,0.30
2022-10-22T14:50:30.089Z,0.50
2022-10-22T14:53:01.892Z,0.57
2022-10-22T14:55:33.657Z,3.03
2022-10-22T14:58:05.629Z,1.43
2022-10-22T15:00:37.513Z,0.43
2022-10-22T15:03:09.943Z,1.43
2022-10-22T15:05:44.438Z,0.70
2022-10-22T15:08:16.650Z,0.83
2022-10-22T15:11:02.380Z,0.87
2022-10-22T15:13:34.899Z,1.03
2022-10-22T15:16:07.857Z,1.20
2022-10-22T15:18:39.629Z,0.70
2022-10-22T15:21:17.666Z,1.63
2022-10-22T15:23:49.986Z,1.90
2022-10-22T15:26:21.834Z,1.50
2022-10-22T15:28:54.603Z,1.10
2022-10-22T15:31:45.772Z,1.00
2022-10-22T15:34:29.134Z,0.90
2022-10-22T15:37:03.282Z,1.10
2022-10-22T15:39:35.710Z,3.40
2022-10-22T15:42:08.235Z,1.07
2022-10-22T15:44:40.580Z,0.60
2022-10-22T15:47:12.475Z,0.80
2022-10-22T15:49:44.498Z,3.23
2022-10-22T15:52:16.269Z,0.90
2022-10-22T15:54:48.101Z,1.87
2022-10-22T15:57:19.858Z,1.73
2022-10-22T15:59:52.095Z,0.93
2022-10-22T16:02:23.853Z,2.40
2022-10-22T16:04:55.653Z,2.70
2022-10-22T16:07:27.453Z,3.63
2022-10-22T16:10:02.520Z,1.30
2022-10-22T16:12:35.961Z,1.97
2022-10-22T16:15:08.977Z,2.27
2022-10-22T16:17:40.705Z,2.63
2022-10-22T16:22:45.056Z,1.03
2022-10-22T16:25:16.837Z,2.60
2022-10-22T16:27:51.851Z,0.90
2022-10-22T16:30:23.560Z,5.47
2022-10-22T16:32:55.280Z,1.67
2022-10-22T16:35:27.661Z,1.87
2022-10-22T16:37:59.449Z,4.07
2022-10-22T16:40:31.546Z,1.50
2022-10-22T16:43:03.390Z,4.33
2022-10-22T16:45:35.118Z,1.70
2022-10-22T16:48:06.881Z,1.37
2022-10-22T16:50:39.697Z,1.60
2022-10-22T16:53:12.024Z,1.70
2022-10-22T16:55:43.884Z,1.67
2022-10-22T16:58:15.616Z,1.33
2022-10-22T17:00:47.440Z,1.73
2022-10-22T17:03:19.223Z,1.27
2022-10-22T17:05:50.952Z,2.40
2022-10-22T17:08:22.742Z,1.40
2022-10-22T17:10:54.514Z,2.20
2022-10-22T17:13:26.386Z,2.00
2022-10-22T17:16:05.960Z,2.30
2022-10-22T17:18:40.024Z,4.43
2022-10-22T17:21:12.582Z,5.30
2022-10-22T17:23:44.866Z,3.00
2022-10-22T17:26:20.785Z,4.17
2022-10-22T17:28:52.933Z,3.53
2022-10-22T17:31:27.395Z,3.20
2022-10-22T17:33:59.995Z,6.33
2022-10-22T17:36:35.019Z,3.67
2022-10-22T17:39:08.687Z,3.40
2022-10-22T17:41:40.409Z,2.87
2022-10-22T17:44:13.397Z,2.90
2022-10-22T17:46:45.518Z,3.27
2022-10-22T17:49:19.542Z,2.70
2022-10-22T17:51:51.678Z,3.27
2022-10-22T17:54:23.443Z,4.27
2022-10-22T17:56:55.188Z,6.10
2022-10-22T17:59:27.622Z,5.50
2022-10-22T18:02:02.191Z,4.70
2022-10-22T18:04:34.302Z,6.50
2022-10-22T18:07:06.089Z,3.43
2022-10-22T18:09:39.588Z,2.90
2022-10-22T18:12:13.746Z,4.37
2022-10-22T18:14:47.002Z,2.77
2022-10-22T18:17:18.773Z,3.20
2022-10-22T18:19:50.494Z,3.37
2022-10-22T18:22:22.216Z,3.23
2022-10-22T18:24:54.341Z,6.37
2022-10-22T18:27:26.092Z,3.93
2022-10-22T18:29:57.828Z,6.27
2022-10-22T18:32:31.389Z,3.67
2022-10-22T18:35:03.377Z,4.60
2022-10-22T18:37:36.429Z,4.00
2022-10-22T18:40:13.703Z,4.70
2022-10-22T18:42:46.500Z,4.60
2022-10-22T18:45:18.369Z,3.20
2022-10-22T18:47:50.134Z,4.33
2022-10-22T18:50:21.957Z,3.50
2022-10-22T18:52:53.746Z,3.03
2022-10-22T18:55:25.565Z,4.43
2022-10-22T18:57:57.333Z,3.13
2022-10-22T19:00:29.617Z,4.63
2022-10-22T19:03:03.107Z,3.80
2022-10-22T19:05:34.833Z,8.87
2022-10-22T19:08:06.555Z,12.27
2022-10-22T19:10:38.755Z,5.93
2022-10-22T19:13:10.622Z,6.90
2022-10-22T19:15:42.699Z,6.17
2022-10-22T19:18:15.162Z,12.30
2022-10-22T19:20:48.403Z,7.93
2022-10-22T19:23:20.877Z,7.63
2022-10-22T19:26:02.035Z,6.10
2022-10-22T19:28:34.301Z,7.53
2022-10-22T19:31:08.003Z,6.37
2022-10-22T19:33:40.155Z,7.90
2022-10-22T19:36:13.923Z,6.47
2022-10-22T19:38:48.355Z,7.20
2022-10-22T19:41:21.867Z,6.23
2022-10-22T19:43:55.010Z,16.07
2022-10-22T19:46:28.822Z,12.03
2022-10-22T19:49:02.642Z,12.03
2022-10-22T19:51:34.720Z,10.67
2022-10-22T19:54:09.061Z,12.27
2022-10-22T19:56:41.272Z,11.20
2022-10-22T19:59:15.091Z,13.83
2022-10-22T20:01:46.957Z,15.87
2022-10-22T20:04:19.168Z,15.17
2022-10-22T20:06:51.229Z,11.47
2022-10-22T20:09:23.023Z,8.57
2022-10-22T20:11:54.824Z,14.97
2022-10-22T20:14:26.681Z,10.13
2022-10-22T20:16:58.496Z,12.70
2022-10-22T20:19:30.282Z,8.40
2022-10-22T20:22:02.000Z,9.07
2022-10-22T20:24:33.980Z,9.57
2022-10-22T20:27:05.728Z,7.20
2022-10-22T20:29:37.478Z,11.43
2022-10-22T20:32:09.210Z,8.43
2022-10-22T20:34:42.446Z,8.73
2022-10-22T20:37:14.268Z,10.13
2022-10-22T20:39:46.019Z,7.60
2022-10-22T20:42:17.943Z,7.70
2022-10-22T20:44:49.807Z,12.73
2022-10-22T20:47:24.759Z,6.60
2022-10-22T20:50:02.344Z,8.17
2022-10-22T20:52:34.343Z,5.13
2022-10-22T20:55:06.390Z,5.97
2022-10-22T20:57:38.233Z,4.73
2022-10-22T21:00:10.594Z,5.90
2022-10-22T21:02:42.415Z,6.77
2022-10-22T21:05:14.133Z,4.90
2022-10-22T21:07:45.904Z,5.10
2022-10-22T21:10:17.611Z,5.97
2022-10-22T21:12:49.422Z,4.40
2022-10-22T21:15:21.144Z,4.90
2022-10-22T21:17:53.162Z,8.50
2022-10-22T21:20:25.045Z,4.17
2022-10-22T21:22:56.838Z,3.33
2022-10-22T21:25:28.647Z,4.63
2022-10-22T21:28:01.159Z,6.17
2022-10-22T21:30:33.004Z,4.53
2022-10-22T21:33:04.724Z,4.00
2022-10-22T21:35:36.442Z,3.97
2022-10-22T21:38:08.247Z,4.10
2022-10-22T21:40:39.994Z,4.57
2022-10-22T21:43:12.127Z,4.40
2022-10-22T21:45:44.657Z,4.50
2022-10-22T21:48:16.572Z,6.20
2022-10-22T21:50:49.862Z,4.60
2022-10-22T21:53:21.586Z,4.80
2022-10-22T21:55:53.303Z,6.47
2022-10-22T21:58:25.041Z,4.37
2022-10-22T22:00:58.154Z,4.73
2022-10-22T22:03:30.284Z,6.40
2022-10-22T22:06:06.715Z,4.57
2022-10-22T22:08:39.409Z,4.30
2022-10-22T22:11:14.352Z,4.80
2022-10-22T22:13:46.150Z,5.73
2022-10-22T22:16:25.458Z,4.23
2022-10-22T22:21:40.665Z,4.60
2022-10-22T22:24:13.101Z,4.70
2022-10-22T22:26:44.842Z,4.30
2022-10-22T22:29:16.632Z,5.73
2022-10-22T22:31:48.417Z,4.87
2022-10-22T22:34:20.141Z,5.17
2022-10-22T22:36:51.875Z,4.87
2022-10-22T22:39:23.967Z,5.03
2022-10-22T22:41:55.722Z,8.30
2022-10-22T22:44:27.510Z,4.33
2022-10-22T22:46:59.225Z,4.33
2022-10-22T22:49:30.978Z,3.60
2022-10-22T22:52:03.914Z,5.30
2022-10-22T22:54:35.624Z,5.23
2022-10-22T22:57:07.465Z,5.73
2022-10-22T22:59:39.233Z,5.20
2022-10-22T23:02:10.976Z,8.70
2022-10-22T23:04:42.693Z,7.00
2022-10-22T23:07:14.420Z,7.10
2022-10-22T23:09:46.245Z,6.80
2022-10-22T23:12:18.035Z,6.17
2022-10-22T23:14:51.304Z,9.13
2022-10-22T23:17:23.205Z,6.33
2022-10-22T23:19:55.108Z,6.93
2022-10-22T23:22:26.868Z,8.83
2022-10-22T23:24:58.651Z,8.27
2022-10-22T23:27:30.378Z,7.77
2022-10-22T23:30:02.083Z,7.53
2022-10-22T23:32:33.817Z,7.03
2022-10-22T23:35:05.917Z,6.43
2022-10-22T23:37:37.666Z,10.33
2022-10-22T23:40:09.858Z,10.30
2022-10-22T23:42:44.790Z,8.40
2022-10-22T23:45:16.721Z,8.10
2022-10-22T23:47:48.580Z,9.10
2022-10-22T23:50:20.316Z,7.57
2022-10-22T23:52:52.042Z,10.00
2022-10-22T23:55:23.854Z,13.97
2022-10-22T23:57:55.619Z,7.67
